Time;durP1;ratioP1;P1;durP2;ratioP2;P2;SDS_P1;SDS_P2;PMS_P1;PMS_P2;Temp;Humidity;BMP_temperature;BMP_pressure;BME280_temperature;BME280_humidity;BME280_pressure;Samples;Min_cycle;Max_cycle;Signal;HPM_P1;HPM_P2
2022/05/03 00:01:24;;;;;;;1.15;1.05;;;;;;;;;;4954435;29;20046;-81
2022/05/03 00:04:17;;;;;;;1.90;1.13;;;;;;;;;;4955554;29;20230;-81
2022/05/03 00:07:02;;;;;;;0.80;0.80;;;;;;;;;;4955832;28;20023;-82
2022/05/03 00:09:39;;;;;;;0.90;0.90;;;;;;;;;;4954265;29;20023;-82
2022/05/03 00:12:09;;;;;;;0.82;0.82;;;;;;;;;;4954271;28;20054;-83
2022/05/03 00:14:45;;;;;;;0.73;0.73;;;;;;;;;;4954172;29;20038;-83
2022/05/03 00:17:14;;;;;;;0.98;0.98;;;;;;;;;;4954015;29;20382;-83
2022/05/03 00:19:40;;;;;;;1.10;1.00;;;;;;;;;;4953623;29;20493;-83
2022/05/03 00:22:06;;;;;;;1.00;1.00;;;;;;;;;;4906548;29;20031;-83
2022/05/03 00:24:31;;;;;;;1.13;1.00;;;;;;;;;;4937935;29;20031;-83
2022/05/03 00:26:57;;;;;;;1.05;1.00;;;;;;;;;;4953811;28;20041;-83
2022/05/03 00:29:24;;;;;;;0.90;0.90;;;;;;;;;;4954892;29;20050;-82
2022/05/03 00:31:50;;;;;;;0.82;0.82;;;;;;;;;;4954023;29;20035;-83
2022/05/03 00:34:16;;;;;;;1.45;0.90;;;;;;;;;;4954003;29;20027;-82
2022/05/03 00:36:42;;;;;;;0.90;0.90;;;;;;;;;;4953558;29;20039;-83
2022/05/03 00:39:07;;;;;;;1.05;0.90;;;;;;;;;;4921893;29;20027;-82
2022/05/03 00:41:52;;;;;;;1.40;1.30;;;;;;;;;;4937815;29;20031;-83
2022/05/03 00:45:01;;;;;;;0.90;0.90;;;;;;;;;;4953539;29;20054;-82
2022/05/03 00:47:32;;;;;;;1.10;1.00;;;;;;;;;;4953724;29;20107;-83
2022/05/03 00:50:07;;;;;;;0.93;0.93;;;;;;;;;;4937670;29;20027;-83
2022/05/03 00:52:53;;;;;;;0.80;0.80;;;;;;;;;;4953576;29;20054;-83
2022/05/03 00:55:31;;;;;;;0.95;0.95;;;;;;;;;;4953685;29;20086;-83
2022/05/03 00:58:09;;;;;;;1.15;1.00;;;;;;;;;;4954571;28;20451;-83
2022/05/03 01:00:42;;;;;;;1.88;0.90;;;;;;;;;;4954603;29;20483;-83
2022/05/03 01:03:18;;;;;;;0.97;0.90;;;;;;;;;;4953235;29;20027;-82
2022/05/03 01:06:06;;;;;;;1.45;0.80;;;;;;;;;;4953153;29;20398;-82
2022/05/03 01:08:41;;;;;;;0.95;0.85;;;;;;;;;;4937417;29;20027;-82
2022/05/03 01:11:11;;;;;;;0.90;0.90;;;;;;;;;;4953307;29;20359;-83
2022/05/03 01:13:44;;;;;;;1.05;0.90;;;;;;;;;;4953029;29;20113;-83
2022/05/03 01:16:27;;;;;;;2.30;0.97;;;;;;;;;;4953083;29;20035;-83
2022/05/03 01:19:03;;;;;;;2.77;1.07;;;;;;;;;;4953157;29;20058;-83
2022/05/03 01:21:53;;;;;;;1.00;1.00;;;;;;;;;;4936735;29;20031;-83
2022/05/03 01:24:34;;;;;;;3.55;1.27;;;;;;;;;;4952983;29;20023;-83
2022/05/03 01:27:18;;;;;;;0.90;0.90;;;;;;;;;;4953089;29;20023;-82
2022/05/03 01:29:49;;;;;;;0.90;0.90;;;;;;;;;;4954215;29;20078;-82
2022/05/03 01:32:19;;;;;;;1.05;1.00;;;;;;;;;;4952887;29;20615;-82
2022/05/03 01:34:46;;;;;;;1.00;0.93;;;;;;;;;;4952958;29;20050;-83
2022/05/03 01:37:33;;;;;;;0.80;0.80;;;;;;;;;;4952740;28;20406;-83
2022/05/03 01:40:32;;;;;;;0.95;0.90;;;;;;;;;;4953052;29;20078;-82
2022/05/03 01:43:24;;;;;;;1.20;0.90;;;;;;;;;;4943510;29;20593;-82
2022/05/03 01:46:11;;;;;;;1.25;1.00;;;;;;;;;;4952677;29;20035;-82
2022/05/03 01:51:57;;;;;;;1.05;0.90;;;;;;;;;;4952951;29;20054;-82
2022/05/03 01:54:44;;;;;;;1.00;1.00;;;;;;;;;;4953285;28;20378;-82
2022/05/03 01:57:27;;;;;;;1.00;1.00;;;;;;;;;;4952355;29;20054;-83
2022/05/03 02:00:05;;;;;;;1.58;1.00;;;;;;;;;;4952845;29;20058;-82
2022/05/03 02:02:58;;;;;;;1.10;1.00;;;;;;;;;;4954130;29;20031;-82
2022/05/03 02:06:02;;;;;;;1.13;1.02;;;;;;;;;;4952815;29;20168;-82
2022/05/03 02:09:06;;;;;;;1.10;1.00;;;;;;;;;;4953689;29;20023;-82
2022/05/03 02:11:40;;;;;;;1.23;1.10;;;;;;;;;;4919726;29;20102;-82
2022/05/03 02:17:29;;;;;;;1.00;0.90;;;;;;;;;;4936056;29;20082;-82
2022/05/03 02:20:35;;;;;;;1.25;1.00;;;;;;;;;;4926201;29;20091;-82
2022/05/03 02:23:13;;;;;;;0.82;0.82;;;;;;;;;;4936182;29;20040;-83
2022/05/03 02:25:46;;;;;;;0.80;0.80;;;;;;;;;;4936223;29;20050;-82
2022/05/03 02:28:20;;;;;;;0.90;0.90;;;;;;;;;;4920622;29;20391;-82
2022/05/03 02:30:47;;;;;;;1.50;1.05;;;;;;;;;;4936034;29;20258;-82
2022/05/03 02:33:17;;;;;;;1.35;1.13;;;;;;;;;;4920136;29;20036;-83
2022/05/03 02:35:48;;;;;;;1.50;1.20;;;;;;;;;;4919893;29;20047;-82
2022/05/03 02:38:20;;;;;;;1.50;1.30;;;;;;;;;;4920474;29;20031;-82
2022/05/03 02:40:46;;;;;;;1.10;1.00;;;;;;;;;;4920385;29;20474;-82
2022/05/03 02:43:15;;;;;;;1.10;1.00;;;;;;;;;;4951874;29;20051;-82
2022/05/03 02:45:49;;;;;;;1.08;0.93;;;;;;;;;;4957237;29;20023;-83
2022/05/03 02:48:18;;;;;;;2.17;1.00;;;;;;;;;;4956122;29;20094;-82
2022/05/03 02:50:54;;;;;;;1.23;1.10;;;;;;;;;;4955793;29;20114;-82
2022/05/03 02:53:47;;;;;;;2.33;1.08;;;;;;;;;;4955828;29;20122;-83
2022/05/03 02:56:43;;;;;;;1.50;1.10;;;;;;;;;;4955493;28;20035;-83
2022/05/03 02:59:22;;;;;;;1.30;1.20;;;;;;;;;;4956442;29;20050;-82
2022/05/03 03:02:02;;;;;;;1.10;1.00;;;;;;;;;;4955476;29;20023;-83
2022/05/03 03:04:46;;;;;;;1.13;1.05;;;;;;;;;;4955498;29;20063;-82
2022/05/03 03:07:19;;;;;;;1.27;1.20;;;;;;;;;;4955550;29;20016;-82
2022/05/03 03:09:49;;;;;;;2.75;1.50;;;;;;;;;;4955324;29;20471;-82
2022/05/03 03:12:54;;;;;;;1.00;0.90;;;;;;;;;;4955725;29;20496;-82
2022/05/03 03:15:28;;;;;;;1.52;1.20;;;;;;;;;;4956744;29;20058;-83
2022/05/03 03:17:55;;;;;;;1.73;1.15;;;;;;;;;;4955342;28;20031;-82
2022/05/03 03:20:28;;;;;;;1.38;1.05;;;;;;;;;;4955099;28;20413;-82
2022/05/03 03:22:55;;;;;;;1.30;1.20;;;;;;;;;;4954050;28;20431;-83
2022/05/03 03:25:22;;;;;;;1.10;1.00;;;;;;;;;;4956460;29;20051;-82
2022/05/03 03:27:51;;;;;;;1.50;1.20;;;;;;;;;;4954995;29;20027;-82
2022/05/03 03:30:17;;;;;;;1.42;1.33;;;;;;;;;;4956034;29;20038;-82
2022/05/03 03:32:45;;;;;;;1.50;1.23;;;;;;;;;;4954814;29;20035;-82
2022/05/03 03:35:14;;;;;;;1.30;1.20;;;;;;;;;;4954890;29;20039;-83
2022/05/03 03:37:42;;;;;;;1.85;1.40;;;;;;;;;;4954994;29;20407;-82
2022/05/03 03:40:08;;;;;;;1.50;1.20;;;;;;;;;;4954975;29;20193;-83
2022/05/03 03:42:34;;;;;;;1.10;1.00;;;;;;;;;;4954841;28;20038;-82
2022/05/03 03:45:01;;;;;;;1.30;1.13;;;;;;;;;;4938602;29;20114;-82
2022/05/03 03:47:29;;;;;;;1.30;1.20;;;;;;;;;;4939186;29;20458;-82
2022/05/03 03:49:56;;;;;;;1.40;1.30;;;;;;;;;;4954682;28;20031;-83
2022/05/03 03:52:22;;;;;;;1.23;1.13;;;;;;;;;;4955099;29;20493;-83
2022/05/03 03:54:47;;;;;;;1.75;1.40;;;;;;;;;;4954448;29;20039;-82
2022/05/03 03:57:14;;;;;;;1.92;1.20;;;;;;;;;;4954110;29;20351;-82
2022/05/03 03:59:39;;;;;;;4.13;1.20;;;;;;;;;;4954372;29;20553;-82
2022/05/03 04:02:05;;;;;;;1.30;1.20;;;;;;;;;;4937866;29;20073;-83
2022/05/03 04:04:31;;;;;;;1.33;1.23;;;;;;;;;;4954004;29;20101;-82
2022/05/03 04:07:00;;;;;;;1.52;1.38;;;;;;;;;;4953982;29;20049;-82
2022/05/03 04:09:27;;;;;;;1.10;1.00;;;;;;;;;;4969975;28;20063;-82
2022/05/03 04:11:53;;;;;;;1.50;1.38;;;;;;;;;;4955168;29;20106;-82
2022/05/03 04:14:19;;;;;;;2.60;1.00;;;;;;;;;;4937953;29;20035;-82
2022/05/03 04:16:45;;;;;;;1.58;1.48;;;;;;;;;;4953916;29;20034;-83
2022/05/03 04:19:11;;;;;;;1.85;1.48;;;;;;;;;;4953715;29;20031;-82
2022/05/03 04:21:37;;;;;;;1.35;1.23;;;;;;;;;;4953479;29;20038;-83
2022/05/03 04:24:03;;;;;;;2.25;1.30;;;;;;;;;;4953661;29;20039;-83
2022/05/03 04:26:28;;;;;;;1.63;1.20;;;;;;;;;;4953569;29;20027;-82
2022/05/03 04:29:01;;;;;;;1.77;1.27;;;;;;;;;;4953704;29;20027;-82
2022/05/03 04:31:30;;;;;;;1.38;1.27;;;;;;;;;;4953513;29;20494;-82
2022/05/03 04:33:56;;;;;;;1.35;1.25;;;;;;;;;;4955152;28;20114;-82
2022/05/03 04:36:22;;;;;;;1.92;1.33;;;;;;;;;;4953928;29;20130;-82
2022/05/03 04:38:51;;;;;;;1.50;1.40;;;;;;;;;;4953925;28;20037;-82
2022/05/03 04:41:16;;;;;;;1.65;1.50;;;;;;;;;;4954081;28;20031;-82
2022/05/03 04:43:42;;;;;;;4.00;1.40;;;;;;;;;;4953842;29;20390;-82
2022/05/03 04:46:07;;;;;;;1.38;1.27;;;;;;;;;;4954063;29;20038;-83
2022/05/03 04:48:33;;;;;;;2.83;1.50;;;;;;;;;;4937959;29;20120;-82
2022/05/03 04:50:58;;;;;;;1.70;1.30;;;;;;;;;;4937996;29;20086;-82
2022/05/03 04:53:23;;;;;;;2.83;1.58;;;;;;;;;;4938287;29;20051;-83
2022/05/03 04:55:49;;;;;;;1.60;1.50;;;;;;;;;;4953786;29;20427;-82
2022/05/03 04:58:15;;;;;;;1.35;1.25;;;;;;;;;;4953411;29;20082;-82
2022/05/03 05:00:41;;;;;;;1.55;1.40;;;;;;;;;;4937781;29;20035;-82
2022/05/03 05:03:06;;;;;;;2.65;1.40;;;;;;;;;;4953784;29;20150;-82
2022/05/03 05:05:31;;;;;;;1.38;1.27;;;;;;;;;;4953623;29;20173;-82
2022/05/03 05:08:05;;;;;;;1.50;1.40;;;;;;;;;;4953546;28;20023;-82
2022/05/03 05:10:32;;;;;;;1.83;1.63;;;;;;;;;;4953741;29;20033;-81
2022/05/03 05:12:58;;;;;;;1.73;1.63;;;;;;;;;;4953563;28;20109;-83
2022/05/03 05:15:23;;;;;;;5.15;1.55;;;;;;;;;;4953475;29;20035;-82
2022/05/03 05:17:52;;;;;;;2.83;1.63;;;;;;;;;;4937749;29;20050;-82
2022/05/03 05:20:18;;;;;;;2.00;1.80;;;;;;;;;;4937613;29;20041;-82
2022/05/03 05:22:44;;;;;;;2.20;1.83;;;;;;;;;;4953404;29;20043;-82
2022/05/03 05:25:10;;;;;;;1.83;1.70;;;;;;;;;;4953397;29;20031;-81
2022/05/03 05:27:35;;;;;;;1.60;1.50;;;;;;;;;;4953315;29;20026;-81
2022/05/03 05:30:01;;;;;;;1.63;1.52;;;;;;;;;;4953644;29;20027;-82
2022/05/03 05:32:27;;;;;;;1.98;1.60;;;;;;;;;;4954503;29;20031;-82
2022/05/03 05:34:52;;;;;;;3.13;1.83;;;;;;;;;;4921430;29;20493;-82
2022/05/03 05:37:17;;;;;;;3.03;1.40;;;;;;;;;;4953245;29;20035;-82
2022/05/03 05:39:44;;;;;;;1.98;1.80;;;;;;;;;;4953298;29;20035;-82
2022/05/03 05:42:11;;;;;;;1.90;1.75;;;;;;;;;;4921768;29;20413;-82
2022/05/03 05:44:38;;;;;;;2.58;2.10;;;;;;;;;;4954424;28;20094;-82
2022/05/03 05:47:05;;;;;;;3.40;2.08;;;;;;;;;;4957116;28;20089;-82
2022/05/03 05:49:30;;;;;;;1.98;1.70;;;;;;;;;;4957054;29;20019;-82
2022/05/03 05:53:31;;;;;;;2.15;1.90;;;;;;;;;;4941286;28;20370;-82
2022/05/03 05:54:41;;;;;;;2.08;1.90;;;;;;;;;;4957217;29;20031;-82
2022/05/03 05:57:06;;;;;;;1.75;1.65;;;;;;;;;;4940995;29;20054;-82
2022/05/03 05:59:32;;;;;;;2.33;2.13;;;;;;;;;;4940983;29;20370;-82
2022/05/03 06:01:57;;;;;;;2.08;1.88;;;;;;;;;;4956744;29;20117;-81
2022/05/03 06:04:22;;;;;;;2.25;1.95;;;;;;;;;;4973053;28;20366;-82
2022/05/03 06:06:48;;;;;;;1.80;1.63;;;;;;;;;;4956745;29;20438;-82
2022/05/03 06:09:13;;;;;;;3.10;1.90;;;;;;;;;;4958099;29;20031;-82
2022/05/03 06:11:39;;;;;;;4.22;1.90;;;;;;;;;;4958010;29;20046;-82
2022/05/03 06:14:05;;;;;;;2.40;1.90;;;;;;;;;;4941013;29;20042;-82
2022/05/03 06:16:30;;;;;;;2.65;1.98;;;;;;;;;;4940404;29;20058;-82
2022/05/03 06:18:56;;;;;;;2.08;1.67;;;;;;;;;;4957026;29;20086;-82
2022/05/03 06:21:21;;;;;;;2.28;1.90;;;;;;;;;;4958305;29;20091;-82
2022/05/03 06:23:46;;;;;;;12.93;2.42;;;;;;;;;;4925560;29;20470;-82
2022/05/03 06:26:12;;;;;;;2.88;2.13;;;;;;;;;;4957606;29;20082;-82
2022/05/03 06:28:39;;;;;;;2.65;1.80;;;;;;;;;;4959277;29;20063;-82
2022/05/03 06:31:05;;;;;;;2.97;1.63;;;;;;;;;;4957990;28;20035;-82
2022/05/03 06:33:30;;;;;;;1.75;1.65;;;;;;;;;;4958761;29;20351;-82
2022/05/03 06:35:55;;;;;;;4.03;2.08;;;;;;;;;;4960819;29;20027;-82
2022/05/03 06:38:21;;;;;;;2.33;1.83;;;;;;;;;;4960212;29;20068;-82
2022/05/03 06:40:46;;;;;;;3.03;1.65;;;;;;;;;;4929165;28;20043;-82
2022/05/03 06:43:12;;;;;;;1.60;1.48;;;;;;;;;;4944096;29;20058;-82
2022/05/03 06:45:37;;;;;;;2.58;1.75;;;;;;;;;;4973244;28;20032;-83
2022/05/03 06:48:05;;;;;;;2.35;1.90;;;;;;;;;;4925092;29;20114;-81
2022/05/03 06:50:30;;;;;;;2.70;1.80;;;;;;;;;;4941241;29;20038;-82
2022/05/03 06:52:56;;;;;;;3.35;2.40;;;;;;;;;;4940654;29;20094;-82
2022/05/03 06:55:22;;;;;;;2.20;1.85;;;;;;;;;;4940258;29;20035;-82
2022/05/03 06:57:48;;;;;;;2.88;2.08;;;;;;;;;;4940265;29;20059;-82
2022/05/03 07:00:15;;;;;;;2.80;1.75;;;;;;;;;;4941361;29;20031;-82
2022/05/03 07:02:44;;;;;;;1.98;1.70;;;;;;;;;;4940196;29;20113;-82
2022/05/03 07:05:09;;;;;;;2.30;1.98;;;;;;;;;;4940822;28;20501;-80
2022/05/03 07:07:35;;;;;;;2.72;2.25;;;;;;;;;;4956235;28;20027;-81
2022/05/03 07:10:02;;;;;;;2.75;1.90;;;;;;;;;;4939740;29;20062;-81
2022/05/03 07:12:27;;;;;;;2.00;1.60;;;;;;;;;;4955645;29;20058;-81
2022/05/03 07:15:00;;;;;;;2.05;1.73;;;;;;;;;;4955620;29;20482;-83
2022/05/03 07:22:54;;;;;;;3.03;2.72;;;;;;;;;;4942448;29;20175;-82
2022/05/03 07:25:19;;;;;;;4.95;3.83;;;;;;;;;;4956818;29;20071;-83
2022/05/03 07:27:48;;;;;;;6.38;4.07;;;;;;;;;;4956816;29;20031;-82
2022/05/03 07:30:14;;;;;;;3.88;3.40;;;;;;;;;;4939890;29;20035;-80
2022/05/03 07:32:40;;;;;;;7.40;4.25;;;;;;;;;;4939496;29;20031;-82
2022/05/03 07:35:06;;;;;;;5.00;3.95;;;;;;;;;;4940123;29;20081;-82
2022/05/03 07:37:31;;;;;;;5.00;3.90;;;;;;;;;;4956817;29;20034;-81
2022/05/03 07:39:57;;;;;;;5.57;3.40;;;;;;;;;;4957099;29;20381;-81
2022/05/03 07:42:24;;;;;;;3.88;2.38;;;;;;;;;;4958234;28;20041;-81
2022/05/03 07:44:50;;;;;;;7.18;3.40;;;;;;;;;;4955696;29;20130;-81
2022/05/03 07:47:15;;;;;;;5.45;3.80;;;;;;;;;;4939359;29;20110;-81
2022/05/03 07:49:41;;;;;;;6.00;4.60;;;;;;;;;;4924555;29;20067;-82
2022/05/03 07:52:07;;;;;;;7.40;3.58;;;;;;;;;;4971121;28;20445;-82
2022/05/03 07:54:33;;;;;;;5.35;3.20;;;;;;;;;;4955023;29;20209;-81
2022/05/03 07:56:58;;;;;;;4.75;2.67;;;;;;;;;;4938758;29;20082;-82
2022/05/03 07:59:25;;;;;;;2.78;2.22;;;;;;;;;;4955072;29;20042;-80
2022/05/03 08:01:52;;;;;;;3.72;3.10;;;;;;;;;;4956356;29;20031;-81
2022/05/03 08:04:18;;;;;;;3.90;2.60;;;;;;;;;;4955019;29;20023;-79
2022/05/03 08:06:43;;;;;;;10.65;3.20;;;;;;;;;;4954444;29;20019;-79
2022/05/03 08:09:09;;;;;;;7.07;3.40;;;;;;;;;;4954306;28;20493;-79
2022/05/03 08:11:34;;;;;;;5.72;3.95;;;;;;;;;;4938642;29;20078;-80
2022/05/03 08:13:59;;;;;;;6.15;3.83;;;;;;;;;;4954472;29;20035;-78
2022/05/03 08:16:35;;;;;;;7.72;3.80;;;;;;;;;;4938376;29;20031;-81
2022/05/03 08:19:00;;;;;;;3.72;3.17;;;;;;;;;;4954973;28;20180;-81
2022/05/03 08:21:27;;;;;;;6.57;3.33;;;;;;;;;;4938496;29;20062;-81
2022/05/03 08:23:53;;;;;;;4.95;3.20;;;;;;;;;;4954099;29;20100;-81
2022/05/03 08:26:18;;;;;;;4.85;3.05;;;;;;;;;;4954220;29;20394;-81
2022/05/03 08:28:45;;;;;;;8.30;3.45;;;;;;;;;;4954269;29;20032;-81
2022/05/03 08:31:10;;;;;;;6.18;3.17;;;;;;;;;;4938153;29;20391;-81
2022/05/03 08:33:36;;;;;;;3.15;2.38;;;;;;;;;;4954199;28;20042;-81
2022/05/03 08:36:02;;;;;;;3.63;2.90;;;;;;;;;;4922131;29;20111;-81
2022/05/03 08:43:58;;;;;;;4.68;3.30;;;;;;;;;;4954435;29;20046;-81
2022/05/03 08:46:24;;;;;;;5.15;3.42;;;;;;;;;;4954114;28;20031;-81
2022/05/03 08:49:02;;;;;;;6.95;2.92;;;;;;;;;;4953943;29;20042;-81
2022/05/03 08:51:32;;;;;;;5.10;3.38;;;;;;;;;;4954075;29;20042;-81
2022/05/03 08:54:01;;;;;;;5.68;4.13;;;;;;;;;;4954014;28;20030;-81
2022/05/03 08:56:28;;;;;;;6.57;4.40;;;;;;;;;;4937720;29;20109;-81
2022/05/03 08:58:54;;;;;;;4.30;2.97;;;;;;;;;;4953779;29;20042;-81
2022/05/03 09:01:20;;;;;;;4.70;3.35;;;;;;;;;;4953642;28;20375;-81
2022/05/03 09:03:45;;;;;;;4.63;3.85;;;;;;;;;;4953550;29;20060;-81
2022/05/03 09:06:11;;;;;;;5.60;4.20;;;;;;;;;;4938095;29;20462;-81
2022/05/03 09:08:39;;;;;;;6.30;4.35;;;;;;;;;;4953660;28;20390;-81
2022/05/03 09:11:15;;;;;;;6.45;4.72;;;;;;;;;;4953593;29;20497;-81
2022/05/03 09:13:40;;;;;;;5.47;4.22;;;;;;;;;;4937462;29;20034;-81
2022/05/03 09:16:24;;;;;;;5.38;4.30;;;;;;;;;;4937466;29;20031;-81
2022/05/03 09:18:49;;;;;;;5.50;4.90;;;;;;;;;;4953913;29;20118;-81
2022/05/03 09:24:07;;;;;;;5.53;4.15;;;;;;;;;;4955159;29;20044;-81
2022/05/03 09:26:33;;;;;;;4.78;3.97;;;;;;;;;;4969488;28;20046;-80
2022/05/03 09:29:03;;;;;;;5.45;3.85;;;;;;;;;;4953643;29;20390;-81
2022/05/03 09:31:46;;;;;;;5.53;4.63;;;;;;;;;;4953463;29;20042;-81
2022/05/03 09:34:25;;;;;;;5.63;3.95;;;;;;;;;;4953706;29;20031;-81
2022/05/03 09:37:05;;;;;;;5.15;4.07;;;;;;;;;;4953345;29;20035;-80
2022/05/03 09:39:31;;;;;;;3.13;2.55;;;;;;;;;;4937646;29;20027;-80
2022/05/03 09:42:04;;;;;;;6.75;3.97;;;;;;;;;;4952999;28;20031;-80
2022/05/03 09:44:31;;;;;;;2.78;2.53;;;;;;;;;;4953161;29;20027;-80
2022/05/03 09:46:56;;;;;;;3.28;2.80;;;;;;;;;;4937660;29;20027;-80
2022/05/03 09:49:35;;;;;;;3.70;2.65;;;;;;;;;;4954370;29;20058;-80
2022/05/03 09:52:01;;;;;;;4.25;3.22;;;;;;;;;;4937880;29;20031;-79
2022/05/03 09:54:28;;;;;;;4.53;3.15;;;;;;;;;;4954700;29;20036;-81
2022/05/03 09:56:54;;;;;;;4.68;3.47;;;;;;;;;;4937019;29;20487;-80
2022/05/03 09:59:20;;;;;;;6.45;4.80;;;;;;;;;;4954210;29;20050;-81
2022/05/03 10:01:46;;;;;;;6.65;4.53;;;;;;;;;;4937090;29;20039;-81
2022/05/03 10:04:13;;;;;;;6.90;4.90;;;;;;;;;;4953295;29;20497;-80
2022/05/03 10:06:39;;;;;;;4.15;3.30;;;;;;;;;;4953379;29;20082;-84
2022/05/03 10:09:04;;;;;;;7.47;3.67;;;;;;;;;;4936924;29;20486;-84
2022/05/03 10:11:30;;;;;;;6.53;4.35;;;;;;;;;;4954166;29;20090;-84
2022/05/03 10:13:55;;;;;;;6.13;3.65;;;;;;;;;;4937493;29;20031;-84
2022/05/03 10:21:55;;;;;;;7.25;3.78;;;;;;;;;;4953256;29;20090;-82
2022/05/03 10:24:21;;;;;;;9.57;4.20;;;;;;;;;;4952803;29;20031;-85
2022/05/03 10:26:53;;;;;;;5.57;3.63;;;;;;;;;;4952876;29;20026;-83
2022/05/03 10:29:20;;;;;;;4.85;3.15;;;;;;;;;;4952468;29;20030;-83
2022/05/03 10:32:11;;;;;;;6.18;3.60;;;;;;;;;;4955186;28;20568;-82
2022/05/03 10:34:40;;;;;;;6.05;3.38;;;;;;;;;;4953863;29;20549;-83
2022/05/03 10:37:10;;;;;;;6.43;3.80;;;;;;;;;;4955784;29;20035;-83
2022/05/03 10:39:54;;;;;;;7.80;3.90;;;;;;;;;;4955395;28;20053;-84
2022/05/03 10:42:25;;;;;;;6.35;3.50;;;;;;;;;;4940138;29;20174;-83
2022/05/03 10:44:53;;;;;;;3.92;2.92;;;;;;;;;;4939989;29;20124;-84
2022/05/03 10:47:52;;;;;;;5.50;3.55;;;;;;;;;;4955795;29;20039;-82
2022/05/03 10:50:21;;;;;;;6.40;3.80;;;;;;;;;;4956767;29;20050;-82
2022/05/03 10:52:56;;;;;;;5.95;3.50;;;;;;;;;;4956744;29;20031;-82
2022/05/03 10:55:29;;;;;;;6.35;3.28;;;;;;;;;;4955134;29;20031;-81
2022/05/03 10:58:13;;;;;;;;;;;;;;;;;;4956541;29;20102;-81
2022/05/03 11:01:00;;;;;;;3.70;2.90;;;;;;;;;;4956626;29;20275;-81
2022/05/03 11:03:26;;;;;;;5.72;3.28;;;;;;;;;;4956190;29;20023;-81
2022/05/03 11:06:32;;;;;;;4.95;3.63;;;;;;;;;;4955027;29;20079;-81
2022/05/03 11:08:57;;;;;;;4.38;3.75;;;;;;;;;;4956273;29;20035;-82
2022/05/03 11:11:44;;;;;;;6.78;3.72;;;;;;;;;;4956383;29;20102;-81
2022/05/03 11:14:21;;;;;;;4.20;3.28;;;;;;;;;;4956329;29;20414;-82
2022/05/03 11:17:23;;;;;;;3.30;3.00;;;;;;;;;;4956398;29;20120;-81
2022/05/03 11:19:53;;;;;;;3.85;3.45;;;;;;;;;;4956114;29;20034;-82
2022/05/03 11:22:22;;;;;;;5.63;3.15;;;;;;;;;;4939045;29;20031;-84
2022/05/03 11:24:51;;;;;;;4.50;3.70;;;;;;;;;;4955119;29;20031;-84
2022/05/03 11:27:17;;;;;;;5.18;3.40;;;;;;;;;;4939707;29;20031;-83
2022/05/03 11:29:57;;;;;;;4.63;3.20;;;;;;;;;;4955042;29;20070;-81
2022/05/03 11:32:34;;;;;;;4.05;3.28;;;;;;;;;;4954760;28;20034;-81
2022/05/03 11:35:23;;;;;;;4.47;2.80;;;;;;;;;;4939781;29;20054;-82
2022/05/03 11:37:55;;;;;;;5.60;3.20;;;;;;;;;;4956490;29;20059;-80
2022/05/03 11:40:24;;;;;;;3.75;3.03;;;;;;;;;;4954839;29;20027;-80
2022/05/03 11:42:51;;;;;;;5.07;3.25;;;;;;;;;;4954089;28;20172;-82
2022/05/03 11:45:17;;;;;;;3.97;3.08;;;;;;;;;;4954930;28;20420;-84
2022/05/03 11:47:50;;;;;;;6.22;4.10;;;;;;;;;;4955459;29;20038;-84
2022/05/03 11:55:59;;;;;;;6.78;5.07;;;;;;;;;;4954771;29;20104;-84
2022/05/03 11:58:24;;;;;;;8.90;5.72;;;;;;;;;;4938260;28;20130;-84
2022/05/03 12:00:50;;;;;;;9.20;6.38;;;;;;;;;;4954534;29;20059;-83
2022/05/03 12:03:16;;;;;;;9.20;5.70;;;;;;;;;;4954252;29;20466;-83
2022/05/03 12:05:58;;;;;;;13.68;6.70;;;;;;;;;;4954204;29;20031;-83
2022/05/03 12:08:24;;;;;;;9.00;5.53;;;;;;;;;;4922733;29;20024;-83
2022/05/03 12:10:52;;;;;;;8.80;5.57;;;;;;;;;;4953888;29;20027;-81
2022/05/03 12:13:24;;;;;;;7.53;5.50;;;;;;;;;;4955477;29;20441;-83
2022/05/03 12:15:58;;;;;;;10.27;6.07;;;;;;;;;;4955141;29;20052;-83
2022/05/03 12:18:37;;;;;;;8.25;5.35;;;;;;;;;;4955208;29;20102;-83
2022/05/03 12:21:12;;;;;;;8.10;5.93;;;;;;;;;;4938049;29;20027;-82
2022/05/03 12:23:45;;;;;;;7.97;5.22;;;;;;;;;;4953525;29;20027;-84
2022/05/03 12:26:19;;;;;;;6.88;4.82;;;;;;;;;;4954863;29;20037;-82
2022/05/03 12:28:47;;;;;;;7.72;5.30;;;;;;;;;;4954439;28;20035;-83
2022/05/03 12:31:14;;;;;;;8.23;4.75;;;;;;;;;;4955182;29;20027;-82
2022/05/03 12:33:42;;;;;;;7.03;4.70;;;;;;;;;;4953828;29;20046;-83
2022/05/03 12:36:08;;;;;;;7.93;4.65;;;;;;;;;;4937710;29;20106;-84
2022/05/03 12:38:49;;;;;;;7.78;4.90;;;;;;;;;;4938127;29;20027;-82
2022/05/03 12:41:22;;;;;;;5.85;4.13;;;;;;;;;;4939557;29;20410;-82
2022/05/03 12:44:04;;;;;;;6.25;3.83;;;;;;;;;;4942356;29;20347;-82
2022/05/03 12:46:30;;;;;;;7.70;5.03;;;;;;;;;;4957831;29;20035;-83
2022/05/03 12:48:55;;;;;;;9.15;4.45;;;;;;;;;;4955565;28;20031;-83
2022/05/03 12:51:22;;;;;;;6.93;4.20;;;;;;;;;;4953768;29;20082;-81
2022/05/03 12:53:48;;;;;;;7.70;4.50;;;;;;;;;;4954094;28;20027;-82
2022/05/03 12:58:58;;;;;;;7.90;3.97;;;;;;;;;;4954100;29;20130;-83
2022/05/03 13:01:24;;;;;;;6.78;3.95;;;;;;;;;;4953916;29;20039;-83
2022/05/03 13:03:49;;;;;;;6.40;4.13;;;;;;;;;;4954339;29;20050;-83
2022/05/03 13:06:15;;;;;;;4.93;3.50;;;;;;;;;;4953910;29;20441;-84
2022/05/03 13:08:40;;;;;;;7.07;3.72;;;;;;;;;;4953913;29;20035;-85
2022/05/03 13:11:06;;;;;;;8.38;4.38;;;;;;;;;;4953547;29;20039;-84
2022/05/03 13:13:31;;;;;;;5.85;3.60;;;;;;;;;;4954602;29;20027;-85
2022/05/03 13:15:56;;;;;;;5.22;3.33;;;;;;;;;;4953487;28;20418;-87
2022/05/03 13:18:22;;;;;;;4.55;3.67;;;;;;;;;;4953926;29;20028;-85
2022/05/03 13:20:47;;;;;;;4.00;3.13;;;;;;;;;;4939083;29;20039;-83
2022/05/03 13:23:14;;;;;;;5.68;3.75;;;;;;;;;;4954573;29;20387;-85
2022/05/03 13:25:40;;;;;;;5.00;3.70;;;;;;;;;;4954662;29;20035;-84
2022/05/03 13:28:09;;;;;;;6.47;3.70;;;;;;;;;;4954086;28;20078;-83
2022/05/03 13:30:34;;;;;;;6.75;3.72;;;;;;;;;;4939358;29;20042;-86
2022/05/03 13:33:00;;;;;;;6.53;3.58;;;;;;;;;;4955129;29;20031;-84
2022/05/03 13:40:55;;;;;;;8.30;3.33;;;;;;;;;;4953470;28;20042;-86
2022/05/03 13:43:22;;;;;;;5.32;3.60;;;;;;;;;;4952835;29;20370;-85
2022/05/03 13:45:48;;;;;;;5.28;3.33;;;;;;;;;;4936890;28;20054;-85
2022/05/03 13:48:13;;;;;;;16.80;3.63;;;;;;;;;;4937348;29;20387;-86
2022/05/03 13:50:40;;;;;;;4.60;3.30;;;;;;;;;;4954355;29;20042;-86
2022/05/03 13:53:08;;;;;;;8.32;3.67;;;;;;;;;;4954798;29;20023;-86
2022/05/03 13:55:33;;;;;;;5.90;3.30;;;;;;;;;;4924053;29;20027;-85
2022/05/03 13:57:59;;;;;;;5.40;3.67;;;;;;;;;;4953534;29;20138;-86
2022/05/03 14:00:24;;;;;;;5.07;3.30;;;;;;;;;;4937180;29;20067;-85
2022/05/03 14:02:52;;;;;;;8.32;3.50;;;;;;;;;;4953169;29;20122;-85
2022/05/03 14:05:17;;;;;;;6.07;3.55;;;;;;;;;;4954517;28;20039;-86
2022/05/03 14:07:43;;;;;;;7.25;3.63;;;;;;;;;;4955672;28;20031;-85
2022/05/03 14:10:09;;;;;;;6.47;3.38;;;;;;;;;;4940038;29;20035;-85
2022/05/03 14:12:35;;;;;;;6.57;3.60;;;;;;;;;;4957886;29;20434;-85
2022/05/03 14:15:01;;;;;;;5.93;3.53;;;;;;;;;;4956196;29;20415;-85
2022/05/03 14:17:26;;;;;;;6.90;3.88;;;;;;;;;;4956141;29;20130;-86
2022/05/03 14:19:52;;;;;;;7.72;3.67;;;;;;;;;;4956114;29;20067;-85
2022/05/03 14:22:19;;;;;;;6.65;3.42;;;;;;;;;;4940323;29;20063;-86
2022/05/03 14:24:45;;;;;;;8.13;3.60;;;;;;;;;;4940601;29;20055;-86
2022/05/03 14:27:11;;;;;;;8.57;3.67;;;;;;;;;;4939964;29;20431;-86
2022/05/03 14:29:37;;;;;;;6.72;3.63;;;;;;;;;;4940326;29;20039;-85
2022/05/03 14:32:03;;;;;;;7.00;3.92;;;;;;;;;;4940175;29;20031;-86
2022/05/03 14:34:28;;;;;;;6.40;3.70;;;;;;;;;;4955971;28;20027;-86
2022/05/03 14:36:54;;;;;;;7.57;3.90;;;;;;;;;;4956166;29;20050;-85
2022/05/03 14:39:20;;;;;;;11.63;4.40;;;;;;;;;;4956142;28;20035;-86
2022/05/03 14:41:45;;;;;;;8.40;4.05;;;;;;;;;;4955684;28;20438;-86
2022/05/03 14:44:11;;;;;;;6.43;4.32;;;;;;;;;;4957350;29;20034;-86
2022/05/03 14:46:36;;;;;;;6.70;3.92;;;;;;;;;;4923996;29;20148;-87
2022/05/03 14:49:01;;;;;;;6.43;3.70;;;;;;;;;;4939678;29;20039;-86
2022/05/03 14:51:27;;;;;;;6.35;3.55;;;;;;;;;;4923733;29;20446;-85
2022/05/03 14:53:53;;;;;;;12.18;3.63;;;;;;;;;;4957007;29;20054;-86
2022/05/03 15:04:31;;;;;;;6.25;3.15;;;;;;;;;;4955938;29;20268;-86
2022/05/03 15:06:57;;;;;;;5.32;3.33;;;;;;;;;;4955428;29;20031;-85
2022/05/03 15:09:22;;;;;;;8.02;3.58;;;;;;;;;;4956986;29;20035;-86
2022/05/03 15:11:48;;;;;;;5.57;3.25;;;;;;;;;;4956591;29;20129;-85
2022/05/03 15:14:14;;;;;;;4.50;3.10;;;;;;;;;;4955257;28;20042;-85
2022/05/03 15:16:39;;;;;;;5.10;3.42;;;;;;;;;;4960395;29;20035;-85
2022/05/03 15:19:04;;;;;;;4.43;3.00;;;;;;;;;;4954035;28;20509;-86
2022/05/03 15:21:30;;;;;;;4.80;3.33;;;;;;;;;;4939298;29;20031;-85
2022/05/03 15:26:39;;;;;;;4.32;2.78;;;;;;;;;;4955313;29;20507;-85
2022/05/03 15:29:06;;;;;;;7.57;3.13;;;;;;;;;;4954986;29;20054;-85
2022/05/03 15:31:31;;;;;;;4.93;3.35;;;;;;;;;;4956389;29;20035;-85
2022/05/03 15:34:00;;;;;;;4.70;2.97;;;;;;;;;;4954753;29;20402;-85
2022/05/03 15:36:26;;;;;;;7.88;3.10;;;;;;;;;;4954697;29;20055;-86
2022/05/03 15:38:52;;;;;;;4.95;3.00;;;;;;;;;;4954998;29;20074;-86
2022/05/03 15:41:20;;;;;;;8.05;2.90;;;;;;;;;;4956957;28;20037;-86
2022/05/03 15:43:45;;;;;;;4.40;2.55;;;;;;;;;;4938726;29;20430;-86
2022/05/03 15:46:11;;;;;;;8.30;3.38;;;;;;;;;;4956216;29;20182;-86
2022/05/03 15:48:36;;;;;;;6.07;3.05;;;;;;;;;;4956340;29;20367;-86
2022/05/03 15:51:02;;;;;;;5.13;2.90;;;;;;;;;;4954576;29;20122;-86